sensor_id;sensor_type;location;lat;lon;timestamp;pressure;altitude;pressure_sealevel;temperature;humidity
19811;BME280;10065;49.632;8.346;2023-03-14T00:00:26;98727.09;;;12.67;79.92
19811;BME280;10065;49.632;8.346;2023-03-14T00:02:54;98728.53;;;12.70;79.31
19811;BME280;10065;49.632;8.346;2023-03-14T00:05:24;98740.81;;;12.71;79.23
19811;BME280;10065;49.632;8.346;2023-03-14T00:07:52;98728.97;;;12.73;78.92
19811;BME280;10065;49.632;8.346;2023-03-14T00:10:20;98729.16;;;12.72;78.95
19811;BME280;10065;49.632;8.346;2023-03-14T00:12:48;98724.47;;;12.74;78.76
19811;BME280;10065;49.632;8.346;2023-03-14T00:15:15;98723.84;;;12.72;78.67
19811;BME280;10065;49.632;8.346;2023-03-14T00:17:43;98724.66;;;12.72;78.37
19811;BME280;10065;49.632;8.346;2023-03-14T00:20:12;98718.72;;;12.70;78.94
19811;BME280;10065;49.632;8.346;2023-03-14T00:22:41;98712.59;;;12.70;78.84
19811;BME280;10065;49.632;8.346;2023-03-14T00:25:10;98700.09;;;12.70;78.55
19811;BME280;10065;49.632;8.346;2023-03-14T00:27:38;98709.53;;;12.73;78.26
19811;BME280;10065;49.632;8.346;2023-03-14T00:30:07;98705.63;;;12.75;77.65
19811;BME280;10065;49.632;8.346;2023-03-14T00:32:35;98710.34;;;12.73;77.62
19811;BME280;10065;49.632;8.346;2023-03-14T00:35:04;98710.34;;;12.73;77.02
19811;BME280;10065;49.632;8.346;2023-03-14T00:37:32;98711.16;;;12.74;77.12
19811;BME280;10065;49.632;8.346;2023-03-14T00:40:01;98696.22;;;12.73;76.80
19811;BME280;10065;49.632;8.346;2023-03-14T00:42:32;98686.59;;;12.72;76.50
19811;BME280;10065;49.632;8.346;2023-03-14T00:44:59;98683.94;;;12.72;76.69
19811;BME280;10065;49.632;8.346;2023-03-14T00:47:27;98686.59;;;12.72;76.74
19811;BME280;10065;49.632;8.346;2023-03-14T00:49:55;98696.25;;;12.66;76.67
19811;BME280;10065;49.632;8.346;2023-03-14T00:52:23;98693.34;;;12.68;76.74
19811;BME280;10065;49.632;8.346;2023-03-14T00:54:51;98686.81;;;12.77;76.08
19811;BME280;10065;49.632;8.346;2023-03-14T00:57:20;98695.41;;;12.72;75.86
19811;BME280;10065;49.632;8.346;2023-03-14T00:59:48;98694.38;;;12.73;75.78
19811;BME280;10065;49.632;8.346;2023-03-14T01:02:16;98691.31;;;12.70;76.26
19811;BME280;10065;49.632;8.346;2023-03-14T01:04:43;98703.97;;;12.68;76.15
19811;BME280;10065;49.632;8.346;2023-03-14T01:07:11;98714.22;;;12.71;76.03
19811;BME280;10065;49.632;8.346;2023-03-14T01:09:39;98703.16;;;12.67;75.98
19811;BME280;10065;49.632;8.346;2023-03-14T01:12:07;98710.56;;;12.65;76.06
19811;BME280;10065;49.632;8.346;2023-03-14T01:14:36;98709.91;;;12.76;75.36
19811;BME280;10065;49.632;8.346;2023-03-14T01:17:03;98704.81;;;12.62;76.24
19811;BME280;10065;49.632;8.346;2023-03-14T01:19:32;98696.84;;;12.62;76.57
19811;BME280;10065;49.632;8.346;2023-03-14T01:22:00;98699.50;;;12.62;76.39
19811;BME280;10065;49.632;8.346;2023-03-14T01:24:27;98698.66;;;12.61;76.24
19811;BME280;10065;49.632;8.346;2023-03-14T01:26:55;98694.56;;;12.52;76.93
19811;BME280;10065;49.632;8.346;2023-03-14T01:29:23;98686.78;;;12.51;76.86
19811;BME280;10065;49.632;8.346;2023-03-14T01:31:52;98684.56;;;12.48;77.52
19811;BME280;10065;49.632;8.346;2023-03-14T01:34:20;98682.31;;;12.44;77.63
19811;BME280;10065;49.632;8.346;2023-03-14T01:36:47;98685.16;;;12.50;77.51
19811;BME280;10065;49.632;8.346;2023-03-14T01:39:15;98685.16;;;12.43;77.75
19811;BME280;10065;49.632;8.346;2023-03-14T01:41:43;98683.31;;;12.50;77.25
19811;BME280;10065;49.632;8.346;2023-03-14T01:44:11;98682.69;;;12.41;77.58
19811;BME280;10065;49.632;8.346;2023-03-14T01:46:40;98669.63;;;12.47;77.06
19811;BME280;10065;49.632;8.346;2023-03-14T01:49:14;98670.03;;;12.43;77.21
19811;BME280;10065;49.632;8.346;2023-03-14T01:51:48;98668.78;;;12.33;78.14
19811;BME280;10065;49.632;8.346;2023-03-14T01:54:20;98665.53;;;12.31;78.50
19811;BME280;10065;49.632;8.346;2023-03-14T01:56:53;98673.50;;;12.37;77.89
19811;BME280;10065;49.632;8.346;2023-03-14T01:59:24;98666.34;;;12.38;77.40
19811;BME280;10065;49.632;8.346;2023-03-14T02:01:54;98662.88;;;12.37;77.25
19811;BME280;10065;49.632;8.346;2023-03-14T02:04:28;98649.97;;;12.34;77.32
19811;BME280;10065;49.632;8.346;2023-03-14T02:07:00;98638.53;;;12.40;77.04
19811;BME280;10065;49.632;8.346;2023-03-14T02:09:30;98646.53;;;12.47;76.47
19811;BME280;10065;49.632;8.346;2023-03-14T02:11:58;98639.97;;;12.50;76.34
19811;BME280;10065;49.632;8.346;2023-03-14T02:14:30;98633.66;;;12.57;75.47
19811;BME280;10065;49.632;8.346;2023-03-14T02:17:00;98626.69;;;12.63;75.12
19811;BME280;10065;49.632;8.346;2023-03-14T02:19:44;98613.38;;;12.69;74.43
19811;BME280;10065;49.632;8.346;2023-03-14T02:22:15;98620.94;;;12.59;75.02
19811;BME280;10065;49.632;8.346;2023-03-14T02:24:48;98613.59;;;12.55;75.62
19811;BME280;10065;49.632;8.346;2023-03-14T02:27:20;98610.94;;;12.55;76.19
19811;BME280;10065;49.632;8.346;2023-03-14T02:29:51;98620.56;;;12.56;76.54
19811;BME280;10065;49.632;8.346;2023-03-14T02:32:20;98610.75;;;12.56;76.80
19811;BME280;10065;49.632;8.346;2023-03-14T02:34:52;98603.16;;;12.60;76.86
19811;BME280;10065;49.632;8.346;2023-03-14T02:37:24;98588.44;;;12.64;76.44
19811;BME280;10065;49.632;8.346;2023-03-14T02:39:55;98592.97;;;12.57;77.23
19811;BME280;10065;49.632;8.346;2023-03-14T02:42:26;98578.44;;;12.53;77.42
19811;BME280;10065;49.632;8.346;2023-03-14T02:44:59;98593.16;;;12.55;76.71
19811;BME280;10065;49.632;8.346;2023-03-14T02:47:30;98593.56;;;12.52;76.79
19811;BME280;10065;49.632;8.346;2023-03-14T02:50:04;98588.88;;;12.48;77.16
19811;BME280;10065;49.632;8.346;2023-03-14T02:52:32;98574.56;;;12.49;77.22
19811;BME280;10065;49.632;8.346;2023-03-14T02:55:00;98576.59;;;12.47;76.94
19811;BME280;10065;49.632;8.346;2023-03-14T02:57:29;98587.41;;;12.52;76.43
19811;BME280;10065;49.632;8.346;2023-03-14T02:59:58;98582.72;;;12.47;76.64
19811;BME280;10065;49.632;8.346;2023-03-14T03:02:26;98572.69;;;12.42;76.87
19811;BME280;10065;49.632;8.346;2023-03-14T03:04:54;98568.84;;;12.38;76.30
19811;BME280;10065;49.632;8.346;2023-03-14T03:07:22;98561.66;;;12.32;76.47
19811;BME280;10065;49.632;8.346;2023-03-14T03:09:49;98556.34;;;12.32;76.35
19811;BME280;10065;49.632;8.346;2023-03-14T03:12:17;98561.06;;;12.37;75.84
19811;BME280;10065;49.632;8.346;2023-03-14T03:14:46;98567.00;;;12.39;74.84
19811;BME280;10065;49.632;8.346;2023-03-14T03:17:14;98553.47;;;12.40;74.07
19811;BME280;10065;49.632;8.346;2023-03-14T03:19:42;98547.16;;;12.41;73.84
19811;BME280;10065;49.632;8.346;2023-03-14T03:22:10;98546.31;;;12.41;74.05
19811;BME280;10065;49.632;8.346;2023-03-14T03:24:38;98534.47;;;12.43;73.43
19811;BME280;10065;49.632;8.346;2023-03-14T03:27:05;98531.63;;;12.38;73.16
19811;BME280;10065;49.632;8.346;2023-03-14T03:29:33;98527.13;;;12.39;72.82
19811;BME280;10065;49.632;8.346;2023-03-14T03:32:02;98514.66;;;12.39;72.43
19811;BME280;10065;49.632;8.346;2023-03-14T03:34:30;98498.09;;;12.37;72.25
19811;BME280;10065;49.632;8.346;2023-03-14T03:36:58;98497.09;;;12.38;71.63
19811;BME280;10065;49.632;8.346;2023-03-14T03:39:26;98505.63;;;12.40;71.31
19811;BME280;10065;49.632;8.346;2023-03-14T03:41:54;98509.13;;;12.48;71.01
19811;BME280;10065;49.632;8.346;2023-03-14T03:44:21;98498.09;;;12.44;70.96
19811;BME280;10065;49.632;8.346;2023-03-14T03:46:49;98492.16;;;12.42;70.74
19811;BME280;10065;49.632;8.346;2023-03-14T03:49:18;98498.91;;;12.38;70.54
19811;BME280;10065;49.632;8.346;2023-03-14T03:51:46;98491.31;;;12.41;70.00
19811;BME280;10065;49.632;8.346;2023-03-14T03:54:13;98501.56;;;12.44;69.83
19811;BME280;10065;49.632;8.346;2023-03-14T03:56:41;98501.97;;;12.41;69.75
19811;BME280;10065;49.632;8.346;2023-03-14T03:59:09;98489.28;;;12.43;69.56
19811;BME280;10065;49.632;8.346;2023-03-14T04:01:36;98495.22;;;12.46;69.33
19811;BME280;10065;49.632;8.346;2023-03-14T04:04:04;98497.91;;;12.39;69.43
19811;BME280;10065;49.632;8.346;2023-03-14T04:06:34;98504.03;;;12.39;69.43
19811;BME280;10065;49.632;8.346;2023-03-14T04:09:02;98500.75;;;12.37;69.39
19811;BME280;10065;49.632;8.346;2023-03-14T04:11:31;98494.81;;;12.35;69.52
19811;BME280;10065;49.632;8.346;2023-03-14T04:13:59;98495.44;;;12.37;69.61
19811;BME280;10065;49.632;8.346;2023-03-14T04:16:27;98494.22;;;12.40;69.59
19811;BME280;10065;49.632;8.346;2023-03-14T04:18:54;98491.34;;;12.35;69.52
19811;BME280;10065;49.632;8.346;2023-03-14T04:21:22;98496.47;;;12.23;70.13
19811;BME280;10065;49.632;8.346;2023-03-14T04:23:52;98490.56;;;12.28;70.18
19811;BME280;10065;49.632;8.346;2023-03-14T04:26:19;98490.94;;;12.31;69.34
19811;BME280;10065;49.632;8.346;2023-03-14T04:28:47;98492.97;;;12.36;69.06
19811;BME280;10065;49.632;8.346;2023-03-14T04:31:16;98493.81;;;12.36;69.09
19811;BME280;10065;49.632;8.346;2023-03-14T04:33:45;98494.66;;;12.30;68.73
19811;BME280;10065;49.632;8.346;2023-03-14T04:36:13;98502.63;;;12.30;69.01
19811;BME280;10065;49.632;8.346;2023-03-14T04:38:41;98492.19;;;12.22;69.42
19811;BME280;10065;49.632;8.346;2023-03-14T04:41:10;98506.50;;;12.21;69.10
19811;BME280;10065;49.632;8.346;2023-03-14T04:43:38;98505.66;;;12.27;69.07
19811;BME280;10065;49.632;8.346;2023-03-14T04:46:06;98497.28;;;12.37;67.85
19811;BME280;10065;49.632;8.346;2023-03-14T04:48:33;98494.22;;;12.40;67.60
19811;BME280;10065;49.632;8.346;2023-03-14T04:51:01;98497.47;;;12.42;67.71
19811;BME280;10065;49.632;8.346;2023-03-14T04:53:29;98479.69;;;12.42;67.22
19811;BME280;10065;49.632;8.346;2023-03-14T04:55:58;98460.47;;;12.40;67.54
19811;BME280;10065;49.632;8.346;2023-03-14T04:58:27;98464.97;;;12.47;67.09
19811;BME280;10065;49.632;8.346;2023-03-14T05:00:55;98453.31;;;12.48;67.17
19811;BME280;10065;49.632;8.346;2023-03-14T05:03:23;98465.97;;;12.46;67.41
19811;BME280;10065;49.632;8.346;2023-03-14T05:05:51;98473.31;;;12.50;66.88
19811;BME280;10065;49.632;8.346;2023-03-14T05:08:18;98466.59;;;12.48;67.15
19811;BME280;10065;49.632;8.346;2023-03-14T05:10:52;98463.94;;;12.48;67.14
19811;BME280;10065;49.632;8.346;2023-03-14T05:13:19;98478.63;;;12.50;66.95
19811;BME280;10065;49.632;8.346;2023-03-14T05:15:48;98452.88;;;12.57;66.61
19811;BME280;10065;49.632;8.346;2023-03-14T05:18:17;98458.38;;;12.49;66.99
19811;BME280;10065;49.632;8.346;2023-03-14T05:20:45;98468.84;;;12.44;66.65
19811;BME280;10065;49.632;8.346;2023-03-14T05:23:12;98461.50;;;12.39;66.39
19811;BME280;10065;49.632;8.346;2023-03-14T05:25:42;98456.19;;;12.39;66.56
19811;BME280;10065;49.632;8.346;2023-03-14T05:28:10;98442.28;;;12.37;67.04
19811;BME280;10065;49.632;8.346;2023-03-14T05:30:38;98451.25;;;12.43;67.33
19811;BME280;10065;49.632;8.346;2023-03-14T05:33:07;98452.47;;;12.40;67.05
19811;BME280;10065;49.632;8.346;2023-03-14T05:35:35;98459.44;;;12.41;67.18
19811;BME280;10065;49.632;8.346;2023-03-14T05:38:02;98456.16;;;12.46;66.84
19811;BME280;10065;49.632;8.346;2023-03-14T05:40:30;98445.34;;;12.34;67.00
19811;BME280;10065;49.632;8.346;2023-03-14T05:42:58;98451.69;;;12.40;67.25
19811;BME280;10065;49.632;8.346;2023-03-14T05:45:26;98450.84;;;12.46;67.57
19811;BME280;10065;49.632;8.346;2023-03-14T05:47:54;98465.13;;;12.52;67.00
19811;BME280;10065;49.632;8.346;2023-03-14T05:50:23;98461.88;;;12.50;67.30
19811;BME280;10065;49.632;8.346;2023-03-14T05:52:50;98451.22;;;12.63;66.71
19811;BME280;10065;49.632;8.346;2023-03-14T05:55:18;98444.06;;;12.57;66.84
19811;BME280;10065;49.632;8.346;2023-03-14T05:57:46;98445.50;;;12.53;66.88
19811;BME280;10065;49.632;8.346;2023-03-14T06:00:14;98442.84;;;12.53;66.77
19811;BME280;10065;49.632;8.346;2023-03-14T06:02:42;98446.13;;;12.55;66.46
19811;BME280;10065;49.632;8.346;2023-03-14T06:05:10;98442.81;;;12.59;66.05
19811;BME280;10065;49.632;8.346;2023-03-14T06:07:40;98444.66;;;12.59;66.35
19811;BME280;10065;49.632;8.346;2023-03-14T06:10:08;98450.81;;;12.53;66.72
19811;BME280;10065;49.632;8.346;2023-03-14T06:12:36;98449.78;;;12.60;66.55
19811;BME280;10065;49.632;8.346;2023-03-14T06:15:06;98457.75;;;12.60;66.58
19811;BME280;10065;49.632;8.346;2023-03-14T06:17:34;98451.41;;;12.61;66.87
19811;BME280;10065;49.632;8.346;2023-03-14T06:20:02;98470.00;;;12.68;67.06
19811;BME280;10065;49.632;8.346;2023-03-14T06:22:29;98469.59;;;12.71;67.34
19811;BME280;10065;49.632;8.346;2023-03-14T06:24:59;98470.19;;;12.73;67.04
19811;BME280;10065;49.632;8.346;2023-03-14T06:27:26;98463.00;;;12.80;66.92
19811;BME280;10065;49.632;8.346;2023-03-14T06:29:54;98468.72;;;12.77;66.98
19811;BME280;10065;49.632;8.346;2023-03-14T06:32:22;98473.69;;;12.73;66.72
19811;BME280;10065;49.632;8.346;2023-03-14T06:34:51;98468.56;;;12.72;66.75
19811;BME280;10065;49.632;8.346;2023-03-14T06:37:19;98473.66;;;12.67;67.43
19811;BME280;10065;49.632;8.346;2023-03-14T06:39:47;98454.84;;;12.68;66.95
19811;BME280;10065;49.632;8.346;2023-03-14T06:42:16;98451.00;;;12.64;66.53
19811;BME280;10065;49.632;8.346;2023-03-14T06:44:43;98449.13;;;12.71;65.82
19811;BME280;10065;49.632;8.346;2023-03-14T06:47:11;98449.53;;;12.75;65.06
19811;BME280;10065;49.632;8.346;2023-03-14T06:49:39;98449.53;;;12.68;65.42
19811;BME280;10065;49.632;8.346;2023-03-14T06:52:06;98455.69;;;12.69;65.43
19811;BME280;10065;49.632;8.346;2023-03-14T06:54:34;98448.31;;;12.71;65.61
19811;BME280;10065;49.632;8.346;2023-03-14T06:57:02;98442.75;;;12.79;65.24
19811;BME280;10065;49.632;8.346;2023-03-14T06:59:31;98438.66;;;12.76;65.37
19811;BME280;10065;49.632;8.346;2023-03-14T07:01:58;98448.72;;;12.74;65.83
19811;BME280;10065;49.632;8.346;2023-03-14T07:04:26;98447.09;;;12.73;66.09
19811;BME280;10065;49.632;8.346;2023-03-14T07:06:54;98442.53;;;12.80;66.36
19811;BME280;10065;49.632;8.346;2023-03-14T07:09:22;98426.97;;;12.84;66.27
19811;BME280;10065;49.632;8.346;2023-03-14T07:11:49;98439.03;;;12.87;66.20
19811;BME280;10065;49.632;8.346;2023-03-14T07:14:17;98440.81;;;12.99;66.12
19811;BME280;10065;49.632;8.346;2023-03-14T07:16:48;98453.34;;;12.92;66.65
19811;BME280;10065;49.632;8.346;2023-03-14T07:19:16;98448.69;;;12.81;67.28
19811;BME280;10065;49.632;8.346;2023-03-14T07:21:43;98455.59;;;12.89;67.25
19811;BME280;10065;49.632;8.346;2023-03-14T07:24:11;98460.06;;;12.95;67.36
19811;BME280;10065;49.632;8.346;2023-03-14T07:26:39;98461.66;;;13.02;66.93
19811;BME280;10065;49.632;8.346;2023-03-14T07:29:07;98464.94;;;13.04;66.95
19811;BME280;10065;49.632;8.346;2023-03-14T07:31:35;98463.28;;;13.16;66.82
19811;BME280;10065;49.632;8.346;2023-03-14T07:34:04;98462.78;;;13.33;66.34
19811;BME280;10065;49.632;8.346;2023-03-14T07:36:31;98466.53;;;13.50;65.60
19811;BME280;10065;49.632;8.346;2023-03-14T07:38:59;98471.94;;;13.68;63.84
19811;BME280;10065;49.632;8.346;2023-03-14T07:41:27;98465.59;;;13.69;63.50
19811;BME280;10065;49.632;8.346;2023-03-14T07:43:55;98465.31;;;13.77;63.95
19811;BME280;10065;49.632;8.346;2023-03-14T07:46:22;98468.19;;;13.76;64.43
19811;BME280;10065;49.632;8.346;2023-03-14T07:48:50;98473.19;;;13.90;63.94
19811;BME280;10065;49.632;8.346;2023-03-14T07:51:19;98462.38;;;13.85;63.34
19811;BME280;10065;49.632;8.346;2023-03-14T07:53:47;98465.16;;;13.97;63.51
19811;BME280;10065;49.632;8.346;2023-03-14T07:56:14;98466.34;;;14.01;62.77
19811;BME280;10065;49.632;8.346;2023-03-14T07:58:42;98460.69;;;13.91;62.14
19811;BME280;10065;49.632;8.346;2023-03-14T08:01:10;98461.69;;;13.97;61.79
19811;BME280;10065;49.632;8.346;2023-03-14T08:03:38;98456.91;;;14.05;61.97
19811;BME280;10065;49.632;8.346;2023-03-14T08:06:06;98470.44;;;14.04;62.08
19811;BME280;10065;49.632;8.346;2023-03-14T08:08:35;98466.25;;;14.14;62.15
19811;BME280;10065;49.632;8.346;2023-03-14T08:11:04;98461.00;;;14.26;61.85
19811;BME280;10065;49.632;8.346;2023-03-14T08:13:35;98467.88;;;14.40;61.76
19811;BME280;10065;49.632;8.346;2023-03-14T08:16:04;98464.22;;;14.53;61.61
19811;BME280;10065;49.632;8.346;2023-03-14T08:18:32;98470.53;;;14.77;60.38
19811;BME280;10065;49.632;8.346;2023-03-14T08:21:00;98470.06;;;14.98;59.37
19811;BME280;10065;49.632;8.346;2023-03-14T08:23:28;98477.88;;;15.29;59.20
19811;BME280;10065;49.632;8.346;2023-03-14T08:25:57;98478.72;;;15.71;57.75
19811;BME280;10065;49.632;8.346;2023-03-14T08:28:24;98477.50;;;16.67;55.00
19811;BME280;10065;49.632;8.346;2023-03-14T08:30:57;98482.13;;;16.83;54.04
19811;BME280;10065;49.632;8.346;2023-03-14T08:33:25;98492.44;;;17.03;52.99
19811;BME280;10065;49.632;8.346;2023-03-14T08:35:53;98486.78;;;16.76;53.83
19811;BME280;10065;49.632;8.346;2023-03-14T08:38:21;98482.56;;;16.92;53.49
19811;BME280;10065;49.632;8.346;2023-03-14T08:40:56;98481.75;;;16.91;53.47
19811;BME280;10065;49.632;8.346;2023-03-14T08:43:25;98493.19;;;16.87;53.87
19811;BME280;10065;49.632;8.346;2023-03-14T08:45:53;98496.22;;;16.67;54.47
19811;BME280;10065;49.632;8.346;2023-03-14T08:48:21;98489.72;;;16.40;55.11
19811;BME280;10065;49.632;8.346;2023-03-14T08:50:48;98500.97;;;16.18;55.52
19811;BME280;10065;49.632;8.346;2023-03-14T08:53:16;98497.31;;;15.78;56.68
19811;BME280;10065;49.632;8.346;2023-03-14T08:55:44;98484.00;;;15.90;57.25
19811;BME280;10065;49.632;8.346;2023-03-14T08:58:14;98499.25;;;16.71;55.63
19811;BME280;10065;49.632;8.346;2023-03-14T09:00:41;98497.81;;;17.32;54.28
19811;BME280;10065;49.632;8.346;2023-03-14T09:03:09;98482.41;;;17.67;53.58
19811;BME280;10065;49.632;8.346;2023-03-14T09:05:37;98477.41;;;20.37;47.28
19811;BME280;10065;49.632;8.346;2023-03-14T09:08:05;98473.56;;;22.64;41.43
19811;BME280;10065;49.632;8.346;2023-03-14T09:10:33;98474.59;;;22.83;40.60
19811;BME280;10065;49.632;8.346;2023-03-14T09:13:00;98484.69;;;22.42;41.62
19811;BME280;10065;49.632;8.346;2023-03-14T09:15:29;98466.31;;;23.29;39.73
19811;BME280;10065;49.632;8.346;2023-03-14T09:17:57;98479.41;;;23.02;39.47
19811;BME280;10065;49.632;8.346;2023-03-14T09:20:25;98472.78;;;22.48;40.04
19811;BME280;10065;49.632;8.346;2023-03-14T09:22:53;98484.78;;;21.14;42.75
19811;BME280;10065;49.632;8.346;2023-03-14T09:25:21;98471.56;;;19.81;45.68
19811;BME280;10065;49.632;8.346;2023-03-14T09:27:49;98483.94;;;18.85;48.44
19811;BME280;10065;49.632;8.346;2023-03-14T09:30:17;98468.44;;;17.98;51.06
19811;BME280;10065;49.632;8.346;2023-03-14T09:32:46;98477.28;;;17.37;53.08
19811;BME280;10065;49.632;8.346;2023-03-14T09:35:14;98466.63;;;17.25;53.08
19811;BME280;10065;49.632;8.346;2023-03-14T09:37:42;98480.38;;;17.17;54.17
19811;BME280;10065;49.632;8.346;2023-03-14T09:40:12;98476.03;;;17.00;54.21
19811;BME280;10065;49.632;8.346;2023-03-14T09:42:41;98478.19;;;16.51;55.71
19811;BME280;10065;49.632;8.346;2023-03-14T09:45:12;98484.69;;;16.20;57.13
19811;BME280;10065;49.632;8.346;2023-03-14T09:47:46;98485.03;;;15.89;57.75
19811;BME280;10065;49.632;8.346;2023-03-14T09:50:26;98492.41;;;15.63;59.20
19811;BME280;10065;49.632;8.346;2023-03-14T09:52:57;98492.97;;;15.54;60.17
19811;BME280;10065;49.632;8.346;2023-03-14T09:55:28;98488.22;;;15.56;61.01
19811;BME280;10065;49.632;8.346;2023-03-14T09:57:58;98486.78;;;15.53;61.66
19811;BME280;10065;49.632;8.346;2023-03-14T10:00:29;98488.75;;;15.88;61.07
19811;BME280;10065;49.632;8.346;2023-03-14T10:03:12;98486.44;;;16.14;59.96
19811;BME280;10065;49.632;8.346;2023-03-14T10:05:45;98486.22;;;16.16;59.89
19811;BME280;10065;49.632;8.346;2023-03-14T10:08:13;98481.78;;;15.98;60.19
19811;BME280;10065;49.632;8.346;2023-03-14T10:10:41;98479.63;;;15.54;61.14
19811;BME280;10065;49.632;8.346;2023-03-14T10:13:14;98487.50;;;15.30;62.44
19811;BME280;10065;49.632;8.346;2023-03-14T10:15:48;98482.78;;;15.14;63.52
19811;BME280;10065;49.632;8.346;2023-03-14T10:18:17;98485.91;;;15.11;63.88
19811;BME280;10065;49.632;8.346;2023-03-14T10:20:47;98481.47;;;14.87;65.07
19811;BME280;10065;49.632;8.346;2023-03-14T10:23:27;98490.09;;;14.71;65.80
19811;BME280;10065;49.632;8.346;2023-03-14T10:26:03;98493.84;;;14.45;67.25
19811;BME280;10065;49.632;8.346;2023-03-14T10:28:32;98496.84;;;14.30;68.39
19811;BME280;10065;49.632;8.346;2023-03-14T10:31:00;98492.13;;;14.32;68.77
19811;BME280;10065;49.632;8.346;2023-03-14T10:33:31;98496.56;;;14.38;69.00
19811;BME280;10065;49.632;8.346;2023-03-14T10:36:02;98485.38;;;14.29;68.37
19811;BME280;10065;49.632;8.346;2023-03-14T10:38:31;98480.97;;;14.17;69.33
19811;BME280;10065;49.632;8.346;2023-03-14T10:41:00;98484.13;;;14.07;69.62
19811;BME280;10065;49.632;8.346;2023-03-14T10:43:32;98490.53;;;14.00;70.60
19811;BME280;10065;49.632;8.346;2023-03-14T10:46:06;98492.25;;;13.94;71.19
19811;BME280;10065;49.632;8.346;2023-03-14T10:48:38;98510.00;;;13.75;72.71
19811;BME280;10065;49.632;8.346;2023-03-14T10:51:10;98503.09;;;13.68;73.86
19811;BME280;10065;49.632;8.346;2023-03-14T10:53:42;98502.88;;;13.69;74.80
19811;BME280;10065;49.632;8.346;2023-03-14T10:56:15;98502.38;;;13.54;76.21
19811;BME280;10065;49.632;8.346;2023-03-14T10:58:44;98507.69;;;13.54;76.77
19811;BME280;10065;49.632;8.346;2023-03-14T11:01:29;98508.41;;;13.68;76.43
19811;BME280;10065;49.632;8.346;2023-03-14T11:04:06;98509.56;;;13.78;75.15
19811;BME280;10065;49.632;8.346;2023-03-14T11:06:43;98514.09;;;13.78;75.01
19811;BME280;10065;49.632;8.346;2023-03-14T11:09:17;98527.19;;;13.79;74.84
19811;BME280;10065;49.632;8.346;2023-03-14T11:11:48;98523.72;;;13.79;74.19
19811;BME280;10065;49.632;8.346;2023-03-14T11:14:23;98529.41;;;13.82;74.51
19811;BME280;10065;49.632;8.346;2023-03-14T11:17:00;98532.47;;;13.86;73.69
19811;BME280;10065;49.632;8.346;2023-03-14T11:19:42;98541.69;;;13.83;73.67
19811;BME280;10065;49.632;8.346;2023-03-14T11:22:20;98530.63;;;13.86;72.49
19811;BME280;10065;49.632;8.346;2023-03-14T11:25:02;98546.41;;;13.88;72.08
19811;BME280;10065;49.632;8.346;2023-03-14T11:27:41;98545.13;;;13.90;71.62
19811;BME280;10065;49.632;8.346;2023-03-14T11:30:19;98557.59;;;13.97;70.58
19811;BME280;10065;49.632;8.346;2023-03-14T11:32:54;98556.13;;;14.01;70.41
19811;BME280;10065;49.632;8.346;2023-03-14T11:35:30;98571.28;;;14.07;70.38
19811;BME280;10065;49.632;8.346;2023-03-14T11:38:09;98570.81;;;14.10;70.09
19811;BME280;10065;49.632;8.346;2023-03-14T11:40:39;98575.38;;;14.03;70.30
19811;BME280;10065;49.632;8.346;2023-03-14T11:43:13;98589.66;;;14.15;68.67
19811;BME280;10065;49.632;8.346;2023-03-14T11:45:43;98583.72;;;14.13;67.96
19811;BME280;10065;49.632;8.346;2023-03-14T11:48:19;98599.66;;;14.19;67.20
19811;BME280;10065;49.632;8.346;2023-03-14T11:50:53;98623.00;;;14.24;66.46
19811;BME280;10065;49.632;8.346;2023-03-14T11:53:29;98614.19;;;14.23;66.28
19811;BME280;10065;49.632;8.346;2023-03-14T11:56:02;98633.69;;;14.17;66.42
19811;BME280;10065;49.632;8.346;2023-03-14T11:58:34;98650.41;;;14.06;67.25
19811;BME280;10065;49.632;8.346;2023-03-14T12:01:06;98657.25;;;13.89;67.46
19811;BME280;10065;49.632;8.346;2023-03-14T12:03:41;98656.28;;;13.77;67.67
19811;BME280;10065;49.632;8.346;2023-03-14T12:06:17;98666.97;;;13.64;68.00
19811;BME280;10065;49.632;8.346;2023-03-14T12:08:49;98693.88;;;13.49;62.75
19811;BME280;10065;49.632;8.346;2023-03-14T12:11:23;98722.16;;;13.43;58.33
19811;BME280;10065;49.632;8.346;2023-03-14T12:13:53;98738.59;;;13.27;57.05
19811;BME280;10065;49.632;8.346;2023-03-14T12:16:36;98739.19;;;13.29;56.02
19811;BME280;10065;49.632;8.346;2023-03-14T12:22:06;98758.19;;;13.46;55.40
19811;BME280;10065;49.632;8.346;2023-03-14T12:24:36;98781.72;;;13.55;55.04
19811;BME280;10065;49.632;8.346;2023-03-14T12:27:05;98788.91;;;13.55;54.06
19811;BME280;10065;49.632;8.346;2023-03-14T12:29:59;98792.56;;;13.80;53.51
19811;BME280;10065;49.632;8.346;2023-03-14T12:32:30;98817.22;;;14.07;51.63
19811;BME280;10065;49.632;8.346;2023-03-14T12:35:23;98820.84;;;14.26;51.73
19811;BME280;10065;49.632;8.346;2023-03-14T12:37:57;98824.09;;;14.48;50.98
19811;BME280;10065;49.632;8.346;2023-03-14T12:40:30;98840.66;;;14.56;51.76
19811;BME280;10065;49.632;8.346;2023-03-14T12:43:00;98851.63;;;14.42;53.42
19811;BME280;10065;49.632;8.346;2023-03-14T12:45:30;98867.63;;;14.42;54.17
19811;BME280;10065;49.632;8.346;2023-03-14T12:48:08;98853.72;;;14.13;53.45
19811;BME280;10065;49.632;8.346;2023-03-14T12:50:41;98877.38;;;13.83;53.87
19811;BME280;10065;49.632;8.346;2023-03-14T12:56:46;98886.63;;;13.61;52.36
19811;BME280;10065;49.632;8.346;2023-03-14T12:59:29;98900.13;;;13.66;52.77
19811;BME280;10065;49.632;8.346;2023-03-14T13:02:01;98901.38;;;13.70;51.80
19811;BME280;10065;49.632;8.346;2023-03-14T13:04:33;98914.66;;;13.64;51.10
19811;BME280;10065;49.632;8.346;2023-03-14T13:07:11;98914.25;;;13.67;52.23
19811;BME280;10065;49.632;8.346;2023-03-14T13:10:01;98906.28;;;13.60;51.74
19811;BME280;10065;49.632;8.346;2023-03-14T13:12:37;98937.00;;;13.56;52.68
19811;BME280;10065;49.632;8.346;2023-03-14T13:15:17;98942.75;;;13.53;53.48
19811;BME280;10065;49.632;8.346;2023-03-14T13:17:48;98948.03;;;13.33;53.66
19811;BME280;10065;49.632;8.346;2023-03-14T13:20:21;98966.84;;;13.18;54.15